Time;durP1;ratioP1;P1;durP2;ratioP2;P2;SDS_P1;SDS_P2;PMS_P1;PMS_P2;Temp;Humidity;BMP_temperature;BMP_pressure;BME280_temperature;BME280_humidity;BME280_pressure;Samples;Min_cycle;Max_cycle;Signal;HPM_P1;HPM_P2
2021/08/12 00:01:08;;;;;;;6.20;2.80;;;18.40;89.10;;;;;;5054732;28;20056;-75
2021/08/12 00:03:34;;;;;;;6.22;3.42;;;18.40;89.00;;;;;;5053898;28;20051;-75
2021/08/12 00:06:00;;;;;;;5.38;3.15;;;18.40;89.00;;;;;;5054604;28;20028;-74
2021/08/12 00:08:26;;;;;;;6.30;2.88;;;18.40;89.10;;;;;;5054543;28;20016;-75
2021/08/12 00:10:52;;;;;;;6.28;3.40;;;18.40;89.50;;;;;;5054199;28;20025;-75
2021/08/12 00:13:19;;;;;;;5.80;2.95;;;18.40;89.20;;;;;;5054676;28;20025;-75
2021/08/12 00:15:45;;;;;;;5.00;2.63;;;18.40;89.30;;;;;;5053697;28;20075;-75
2021/08/12 00:18:11;;;;;;;5.50;3.20;;;18.30;89.30;;;;;;5054438;28;20110;-75
2021/08/12 00:20:37;;;;;;;6.95;3.08;;;18.30;89.50;;;;;;5053514;28;20517;-75
2021/08/12 00:23:03;;;;;;;6.68;3.10;;;18.30;89.60;;;;;;5054093;28;20036;-74
2021/08/12 00:25:29;;;;;;;6.47;2.80;;;18.30;89.70;;;;;;5053566;28;20385;-75
2021/08/12 00:27:54;;;;;;;5.60;3.05;;;18.30;89.70;;;;;;5053745;28;20087;-75
2021/08/12 00:30:20;;;;;;;4.70;2.72;;;18.30;89.70;;;;;;5054078;28;20100;-74
2021/08/12 00:32:46;;;;;;;5.03;2.70;;;18.20;89.70;;;;;;5053462;28;20398;-74
2021/08/12 00:35:11;;;;;;;5.78;2.90;;;18.20;89.90;;;;;;5054069;28;20017;-74
2021/08/12 00:37:37;;;;;;;6.38;3.00;;;18.20;89.90;;;;;;5051659;28;20403;-74
2021/08/12 00:40:04;;;;;;;5.70;2.72;;;18.20;90.00;;;;;;5053546;28;20024;-75
2021/08/12 00:42:29;;;;;;;5.30;2.72;;;18.10;90.00;;;;;;5052969;28;20055;-74
2021/08/12 00:44:55;;;;;;;4.68;2.90;;;18.10;90.10;;;;;;5053976;28;20437;-75
2021/08/12 00:47:21;;;;;;;4.38;2.60;;;18.10;90.20;;;;;;5053719;28;20025;-75
2021/08/12 00:49:46;;;;;;;5.22;2.78;;;18.10;90.10;;;;;;5053069;28;20063;-75
2021/08/12 00:52:12;;;;;;;7.50;3.20;;;18.10;90.10;;;;;;5052385;28;20025;-75
2021/08/12 00:54:39;;;;;;;6.35;3.10;;;18.10;90.20;;;;;;5052735;28;20159;-75
2021/08/12 00:57:06;;;;;;;6.00;3.25;;;18.00;90.20;;;;;;5053720;28;20372;-75
2021/08/12 00:59:41;;;;;;;5.25;3.10;;;18.00;90.30;;;;;;5053074;28;20112;-75
2021/08/12 01:02:14;;;;;;;6.10;2.95;;;18.00;90.40;;;;;;5053537;28;20040;-75
2021/08/12 01:04:47;;;;;;;4.95;2.50;;;18.00;90.40;;;;;;5052508;28;20095;-75
2021/08/12 01:07:23;;;;;;;5.53;3.10;;;18.00;90.40;;;;;;5053442;28;20139;-75
2021/08/12 01:10:13;;;;;;;5.72;3.00;;;18.00;90.40;;;;;;5052757;28;20017;-75
2021/08/12 01:13:04;;;;;;;6.78;3.45;;;18.00;90.40;;;;;;5052534;28;20036;-75
2021/08/12 01:15:41;;;;;;;4.75;2.65;;;18.00;90.40;;;;;;5053247;28;20021;-74
2021/08/12 01:18:14;;;;;;;5.55;2.60;;;17.90;90.40;;;;;;5051849;28;20021;-75
2021/08/12 01:20:40;;;;;;;6.10;3.28;;;17.90;90.40;;;;;;5052619;28;20040;-75
2021/08/12 01:23:10;;;;;;;5.93;3.20;;;17.90;90.40;;;;;;5051803;28;20075;-75
2021/08/12 01:25:38;;;;;;;5.45;2.85;;;17.90;90.40;;;;;;5052718;28;20471;-74
2021/08/12 01:28:13;;;;;;;5.72;3.00;;;17.80;90.40;;;;;;5052765;28;20013;-75
2021/08/12 01:31:06;;;;;;;6.72;3.30;;;17.80;90.50;;;;;;5052087;28;20364;-74
2021/08/12 01:33:53;;;;;;;5.78;3.00;;;17.80;90.50;;;;;;5052596;28;20092;-75
2021/08/12 01:36:21;;;;;;;6.90;3.40;;;17.80;90.50;;;;;;5052938;28;20017;-75
2021/08/12 01:38:48;;;;;;;5.35;2.85;;;17.70;90.40;;;;;;5052205;28;20421;-75
2021/08/12 01:41:15;;;;;;;6.07;3.00;;;17.80;90.50;;;;;;5051660;28;20059;-75
2021/08/12 01:43:41;;;;;;;6.57;3.08;;;17.70;90.60;;;;;;5050516;28;20406;-74
2021/08/12 01:46:08;;;;;;;6.20;3.30;;;17.70;90.60;;;;;;5052662;28;20104;-75
2021/08/12 01:48:35;;;;;;;6.00;2.72;;;17.70;90.60;;;;;;5050191;28;20334;-75
2021/08/12 01:51:02;;;;;;;5.35;2.80;;;17.70;90.60;;;;;;5052707;28;20028;-74
2021/08/12 01:53:29;;;;;;;5.43;2.50;;;17.70;90.70;;;;;;5051248;28;20024;-75
2021/08/12 01:55:57;;;;;;;6.65;3.00;;;17.70;90.70;;;;;;5051988;28;20021;-75
2021/08/12 01:58:26;;;;;;;6.60;3.38;;;17.60;90.60;;;;;;5051145;28;20009;-75
2021/08/12 02:00:54;;;;;;;6.88;3.05;;;17.70;90.70;;;;;;5050173;28;20052;-74
2021/08/12 02:03:21;;;;;;;6.35;3.03;;;17.70;90.70;;;;;;5052379;28;20078;-75
2021/08/12 02:05:49;;;;;;;6.30;2.78;;;17.60;90.70;;;;;;5051456;28;20088;-75
2021/08/12 02:08:19;;;;;;;7.45;3.75;;;17.60;90.70;;;;;;5052353;28;20468;-75
2021/08/12 02:10:45;;;;;;;7.13;3.28;;;17.60;90.80;;;;;;5051881;28;20024;-73
2021/08/12 02:13:11;;;;;;;8.35;3.33;;;17.60;90.80;;;;;;5051010;28;20035;-74
2021/08/12 02:15:37;;;;;;;7.22;3.65;;;17.60;90.80;;;;;;5051889;28;20512;-73
2021/08/12 02:18:06;;;;;;;8.15;3.88;;;17.60;90.90;;;;;;5052465;28;20028;-76
2021/08/12 02:20:33;;;;;;;5.88;3.30;;;17.60;90.90;;;;;;5051830;28;20020;-74
2021/08/12 02:23:13;;;;;;;5.85;3.28;;;17.60;90.80;;;;;;5051531;28;20060;-74
2021/08/12 02:25:59;;;;;;;5.95;3.55;;;17.60;90.90;;;;;;5051003;28;20086;-74
2021/08/12 02:28:28;;;;;;;6.82;3.42;;;17.60;90.90;;;;;;5052092;28;20025;-74
2021/08/12 02:30:55;;;;;;;9.07;3.88;;;17.60;90.90;;;;;;5051390;28;20028;-74
2021/08/12 02:33:26;;;;;;;7.00;3.75;;;17.60;90.90;;;;;;5052176;28;20021;-74
2021/08/12 02:35:52;;;;;;;7.82;3.45;;;17.60;91.00;;;;;;5051457;28;20017;-74
2021/08/12 02:38:19;;;;;;;6.63;3.65;;;17.60;91.00;;;;;;5052013;28;20504;-74
2021/08/12 02:40:47;;;;;;;6.70;3.83;;;17.60;91.00;;;;;;5050105;28;20361;-74
2021/08/12 02:43:14;;;;;;;5.78;3.38;;;17.60;91.10;;;;;;5051858;28;20025;-74
2021/08/12 02:45:41;;;;;;;9.20;3.55;;;17.60;91.10;;;;;;5051268;28;20017;-73
2021/08/12 02:48:11;;;;;;;6.72;3.47;;;17.50;91.10;;;;;;5052207;28;20025;-74
2021/08/12 02:50:39;;;;;;;9.38;3.88;;;17.50;91.20;;;;;;5051855;28;20025;-74
2021/08/12 02:53:05;;;;;;;6.22;3.33;;;17.50;91.20;;;;;;5050605;28;20107;-74
2021/08/12 02:55:33;;;;;;;8.35;3.55;;;17.50;91.30;;;;;;5051804;28;20047;-74
2021/08/12 02:58:01;;;;;;;7.90;3.47;;;17.50;91.30;;;;;;5051240;28;20029;-74
2021/08/12 03:00:26;;;;;;;5.75;3.10;;;17.50;91.30;;;;;;5052832;28;20480;-74
2021/08/12 03:02:53;;;;;;;8.40;3.72;;;17.50;91.40;;;;;;5054888;28;20036;-74
2021/08/12 03:05:20;;;;;;;7.40;3.80;;;17.50;91.40;;;;;;5054267;28;20107;-74
2021/08/12 03:07:47;;;;;;;6.15;3.50;;;17.50;91.40;;;;;;5054841;28;20032;-74
2021/08/12 03:10:14;;;;;;;6.95;3.88;;;17.50;91.40;;;;;;5055359;28;20090;-74
2021/08/12 03:12:41;;;;;;;5.97;3.45;;;17.50;91.40;;;;;;5055401;28;20031;-75
2021/08/12 03:15:09;;;;;;;6.63;3.55;;;17.50;91.40;;;;;;5055273;28;20021;-75
2021/08/12 03:17:35;;;;;;;7.20;3.60;;;17.40;91.40;;;;;;5055537;28;20021;-75
2021/08/12 03:20:03;;;;;;;7.18;3.72;;;17.50;91.40;;;;;;5054871;28;20463;-74
2021/08/12 03:22:29;;;;;;;6.55;3.17;;;17.50;91.50;;;;;;5055863;28;20021;-75
2021/08/12 03:24:55;;;;;;;7.20;3.30;;;17.40;91.50;;;;;;5054301;28;20368;-75
2021/08/12 03:27:21;;;;;;;7.35;3.95;;;17.40;91.50;;;;;;5054744;28;20021;-75
2021/08/12 03:29:47;;;;;;;6.93;3.63;;;17.40;91.40;;;;;;5054475;28;20403;-75
2021/08/12 03:32:13;;;;;;;8.23;3.72;;;17.30;91.50;;;;;;5055166;28;20152;-74
2021/08/12 03:34:39;;;;;;;7.20;3.60;;;17.30;91.50;;;;;;5055287;28;20083;-74
2021/08/12 03:37:05;;;;;;;6.07;3.50;;;17.30;91.50;;;;;;5054364;28;20021;-74
2021/08/12 03:39:31;;;;;;;6.38;3.67;;;17.30;91.60;;;;;;5055094;28;20095;-74
2021/08/12 03:41:58;;;;;;;7.53;3.70;;;17.30;91.60;;;;;;5054366;28;20059;-74
2021/08/12 03:44:24;;;;;;;7.53;3.97;;;17.20;91.60;;;;;;5054728;28;20475;-74
2021/08/12 03:46:50;;;;;;;8.38;3.72;;;17.20;91.60;;;;;;5054345;28;20021;-74
2021/08/12 03:49:16;;;;;;;6.47;3.75;;;17.20;91.60;;;;;;5054875;28;20063;-74
2021/08/12 03:51:42;;;;;;;6.35;3.58;;;17.20;91.60;;;;;;5054942;28;20024;-75
2021/08/12 03:54:07;;;;;;;5.93;3.58;;;17.20;91.70;;;;;;5054811;28;20021;-74
2021/08/12 03:56:33;;;;;;;6.13;3.50;;;17.20;91.70;;;;;;5054790;28;20017;-78
2021/08/12 03:58:58;;;;;;;7.40;3.60;;;17.20;91.70;;;;;;5053619;28;20112;-77
2021/08/12 04:01:24;;;;;;;8.00;3.72;;;17.10;91.70;;;;;;5054453;28;20041;-78
2021/08/12 04:03:50;;;;;;;7.35;3.85;;;17.10;91.70;;;;;;5060329;28;20027;-78
2021/08/12 04:06:16;;;;;;;6.50;3.55;;;17.10;91.70;;;;;;5074029;28;20028;-78
2021/08/12 04:08:42;;;;;;;7.22;3.80;;;17.10;91.70;;;;;;5072935;28;20052;-77
2021/08/12 04:11:10;;;;;;;7.97;3.78;;;17.10;91.80;;;;;;5073352;28;20410;-75
2021/08/12 04:13:35;;;;;;;8.65;4.00;;;17.10;91.80;;;;;;5073358;28;20460;-75
2021/08/12 04:16:01;;;;;;;7.90;4.25;;;17.10;91.70;;;;;;5073032;28;20019;-76
2021/08/12 04:18:27;;;;;;;7.95;4.15;;;17.00;91.80;;;;;;5072460;28;20120;-76
2021/08/12 04:20:53;;;;;;;7.90;3.75;;;17.00;91.80;;;;;;5073001;28;20084;-76
2021/08/12 04:23:18;;;;;;;10.40;7.00;;;17.00;91.90;;;;;;5073883;28;20522;-76
2021/08/12 04:25:45;;;;;;;8.57;5.85;;;17.00;91.90;;;;;;5073713;28;20044;-76
2021/08/12 04:28:11;;;;;;;9.27;5.47;;;17.00;91.90;;;;;;5073306;28;20070;-76
2021/08/12 04:30:37;;;;;;;8.10;4.82;;;17.00;92.00;;;;;;5073299;28;20028;-76
2021/08/12 04:33:03;;;;;;;8.25;4.53;;;17.00;92.00;;;;;;5072926;28;20032;-77
2021/08/12 04:35:28;;;;;;;7.85;4.20;;;17.00;92.00;;;;;;5067719;28;20023;-76
2021/08/12 04:37:54;;;;;;;7.25;4.13;;;17.00;92.00;;;;;;5071703;28;20032;-75
2021/08/12 04:40:21;;;;;;;7.82;3.80;;;17.00;92.10;;;;;;5074083;28;20028;-75
2021/08/12 04:42:48;;;;;;;7.43;4.07;;;17.00;92.10;;;;;;5071972;28;20132;-75
2021/08/12 04:45:15;;;;;;;7.85;4.38;;;17.00;92.00;;;;;;5073665;28;20021;-76
2021/08/12 04:47:40;;;;;;;7.20;4.00;;;17.00;92.00;;;;;;5072249;28;20035;-76
2021/08/12 04:50:08;;;;;;;6.97;3.58;;;17.00;92.00;;;;;;5071126;28;20135;-76
2021/08/12 04:52:33;;;;;;;7.78;4.43;;;17.10;92.00;;;;;;5070553;28;20036;-74
2021/08/12 04:54:59;;;;;;;10.27;5.45;;;17.00;92.00;;;;;;5068226;28;20025;-73
2021/08/12 04:57:25;;;;;;;9.77;4.45;;;17.00;92.00;;;;;;5069520;28;20024;-73
2021/08/12 04:59:51;;;;;;;8.80;4.60;;;17.00;92.00;;;;;;5070538;28;20092;-74
2021/08/12 05:02:17;;;;;;;8.05;4.47;;;17.00;92.00;;;;;;5070687;28;20375;-73
2021/08/12 05:04:42;;;;;;;8.68;4.70;;;17.00;92.10;;;;;;5069163;28;20024;-72
2021/08/12 05:07:08;;;;;;;11.25;5.28;;;17.00;92.10;;;;;;5070065;28;20032;-75
2021/08/12 05:09:34;;;;;;;9.07;4.85;;;17.00;92.10;;;;;;5071145;28;20032;-74
2021/08/12 05:12:00;;;;;;;8.75;5.00;;;17.00;92.20;;;;;;5070437;28;20028;-74
2021/08/12 05:14:26;;;;;;;7.55;4.55;;;17.00;92.20;;;;;;5070411;28;20029;-72
2021/08/12 05:16:52;;;;;;;10.05;4.95;;;17.00;92.30;;;;;;5068684;28;20040;-72
2021/08/12 05:19:17;;;;;;;10.05;4.95;;;17.00;92.20;;;;;;5069710;28;20044;-72
2021/08/12 05:21:43;;;;;;;9.30;5.22;;;17.00;92.30;;;;;;5070418;28;20119;-72
2021/08/12 05:24:09;;;;;;;11.50;5.50;;;17.10;92.30;;;;;;5069450;28;20234;-71
2021/08/12 05:26:53;;;;;;;10.30;5.32;;;17.00;92.30;;;;;;5072944;28;20017;-76
2021/08/12 05:29:19;;;;;;;11.35;5.57;;;17.10;92.30;;;;;;5072623;28;20021;-76
2021/08/12 05:31:44;;;;;;;13.27;6.10;;;17.10;92.30;;;;;;5072338;28;20040;-76
2021/08/12 05:34:10;;;;;;;12.38;5.65;;;17.10;92.30;;;;;;5071934;28;20040;-76
2021/08/12 05:36:35;;;;;;;10.88;5.68;;;17.10;92.30;;;;;;5072441;28;20025;-76
2021/08/12 05:39:01;;;;;;;9.75;5.28;;;17.20;92.30;;;;;;5070763;28;20039;-76
2021/08/12 05:41:27;;;;;;;11.68;5.85;;;17.20;92.30;;;;;;5072186;28;20037;-76
2021/08/12 05:43:53;;;;;;;9.88;5.40;;;17.30;92.40;;;;;;5071800;28;20028;-76
2021/08/12 05:46:18;;;;;;;10.35;5.55;;;17.30;92.60;;;;;;5072772;28;20024;-76
2021/08/12 05:48:44;;;;;;;8.00;4.78;;;17.30;92.30;;;;;;5072777;28;20445;-76
2021/08/12 05:51:10;;;;;;;11.02;6.15;;;17.30;92.30;;;;;;5071491;28;20070;-74
2021/08/12 05:53:35;;;;;;;9.73;5.22;;;17.30;92.30;;;;;;5072407;28;20017;-74
2021/08/12 05:56:04;;;;;;;11.10;5.70;;;17.40;92.40;;;;;;5071460;28;20031;-74
2021/08/12 05:58:33;;;;;;;10.23;5.20;;;17.40;92.40;;;;;;5072247;28;20096;-75
2021/08/12 06:00:58;;;;;;;8.80;5.50;;;17.40;92.40;;;;;;5071550;28;20017;-75
2021/08/12 06:03:24;;;;;;;9.82;5.78;;;17.40;92.40;;;;;;5071902;28;20051;-75
2021/08/12 06:05:55;;;;;;;11.15;6.15;;;17.40;92.40;;;;;;5071947;28;20016;-75
2021/08/12 06:08:21;;;;;;;10.57;5.70;;;17.40;92.50;;;;;;5072189;28;20021;-75
2021/08/12 06:10:47;;;;;;;9.85;5.28;;;17.40;92.50;;;;;;5072093;28;20024;-75
2021/08/12 06:13:13;;;;;;;9.35;5.68;;;17.50;92.50;;;;;;5071479;28;20488;-75
2021/08/12 06:15:39;;;;;;;11.77;6.22;;;17.50;92.50;;;;;;5072359;28;20016;-75
2021/08/12 06:18:09;;;;;;;11.48;5.78;;;17.50;92.50;;;;;;5071530;28;20453;-75
2021/08/12 06:20:36;;;;;;;10.98;5.68;;;17.60;92.50;;;;;;5072150;28;20490;-75
2021/08/12 06:23:05;;;;;;;9.32;4.53;;;17.60;92.50;;;;;;5071356;28;20349;-75
2021/08/12 06:25:31;;;;;;;10.70;6.07;;;17.70;92.40;;;;;;5071794;28;20044;-75
2021/08/12 06:27:56;;;;;;;12.73;6.40;;;17.70;92.40;;;;;;5071759;28;20025;-75
2021/08/12 06:30:22;;;;;;;10.90;5.82;;;17.70;92.40;;;;;;5071974;28;20479;-75
2021/08/12 06:32:47;;;;;;;10.60;5.75;;;17.80;92.30;;;;;;5071709;28;20107;-75
2021/08/12 06:35:13;;;;;;;9.95;5.50;;;17.80;92.30;;;;;;5070631;28;20044;-75
2021/08/12 06:37:43;;;;;;;9.05;5.20;;;17.90;92.20;;;;;;5070696;28;20051;-76
2021/08/12 06:40:10;;;;;;;11.65;6.53;;;17.90;92.20;;;;;;5069977;28;20024;-75
2021/08/12 06:42:35;;;;;;;12.20;6.10;;;18.00;92.10;;;;;;5070451;28;20142;-75
2021/08/12 06:45:01;;;;;;;12.98;6.35;;;18.00;92.00;;;;;;5071510;28;20035;-75
2021/08/12 06:47:27;;;;;;;9.88;5.50;;;18.10;91.90;;;;;;5072180;28;20021;-75
2021/08/12 06:49:53;;;;;;;12.50;6.40;;;18.20;91.90;;;;;;5071844;28;20457;-73
2021/08/12 06:52:18;;;;;;;16.60;6.78;;;18.20;91.80;;;;;;5070988;28;20071;-75
2021/08/12 06:54:44;;;;;;;11.82;6.22;;;18.20;91.80;;;;;;5072093;28;20067;-75
2021/08/12 06:57:09;;;;;;;12.50;5.93;;;18.30;91.70;;;;;;5070756;28;20418;-75
2021/08/12 06:59:35;;;;;;;12.63;6.35;;;18.30;91.70;;;;;;5071789;28;20017;-75
2021/08/12 07:02:01;;;;;;;12.13;6.45;;;18.40;91.60;;;;;;5070785;28;20358;-73
2021/08/12 07:04:26;;;;;;;9.75;5.70;;;18.40;91.60;;;;;;5071660;28;20106;-74
2021/08/12 07:06:52;;;;;;;14.82;6.63;;;18.40;91.50;;;;;;5071656;28;20032;-76
2021/08/12 07:09:18;;;;;;;11.30;5.72;;;18.50;91.50;;;;;;5071055;28;20082;-75
2021/08/12 07:11:43;;;;;;;13.25;6.78;;;18.50;91.50;;;;;;5071264;28;20029;-76
2021/08/12 07:14:09;;;;;;;11.80;6.47;;;18.50;91.40;;;;;;5071016;28;20028;-76
2021/08/12 07:16:35;;;;;;;9.57;5.20;;;18.60;91.40;;;;;;5071525;28;20028;-75
2021/08/12 07:19:00;;;;;;;13.10;6.32;;;18.60;91.40;;;;;;5069311;28;20098;-76
2021/08/12 07:21:28;;;;;;;11.82;6.65;;;18.60;91.40;;;;;;5071589;28;20036;-75
2021/08/12 07:23:54;;;;;;;7.78;4.60;;;18.70;91.30;;;;;;5071444;28;20029;-74
2021/08/12 07:26:19;;;;;;;10.88;5.95;;;18.70;91.20;;;;;;5070868;28;20057;-74
2021/08/12 07:28:46;;;;;;;9.45;4.88;;;18.70;91.20;;;;;;5071442;28;20035;-74
2021/08/12 07:31:13;;;;;;;10.43;6.10;;;18.80;91.10;;;;;;5070390;28;20361;-74
2021/08/12 07:33:39;;;;;;;10.43;6.55;;;18.80;91.10;;;;;;5071510;28;20487;-74
2021/08/12 07:36:06;;;;;;;9.15;5.00;;;18.80;91.00;;;;;;5070701;28;20032;-74
2021/08/12 07:38:33;;;;;;;6.75;3.55;;;18.90;90.90;;;;;;5071523;28;20028;-74
2021/08/12 07:40:59;;;;;;;7.15;4.65;;;18.90;90.80;;;;;;5069593;28;20017;-74
2021/08/12 07:43:26;;;;;;;9.75;5.80;;;19.00;90.80;;;;;;5070893;28;20042;-74
2021/08/12 07:45:52;;;;;;;9.27;4.85;;;19.00;90.70;;;;;;5071228;28;20071;-74
2021/08/12 07:48:17;;;;;;;9.05;4.65;;;19.10;90.60;;;;;;5072909;28;20033;-75
2021/08/12 07:50:43;;;;;;;12.45;5.13;;;19.20;90.50;;;;;;5074848;28;20017;-74
2021/08/12 07:53:10;;;;;;;10.63;5.35;;;19.20;90.30;;;;;;5074085;28;20043;-74
2021/08/12 07:55:35;;;;;;;7.40;4.30;;;19.30;90.20;;;;;;5074695;28;20028;-74
2021/08/12 07:58:01;;;;;;;8.50;4.50;;;19.40;90.10;;;;;;5073975;28;20028;-74
2021/08/12 08:00:28;;;;;;;8.68;4.75;;;19.40;90.00;;;;;;5074302;28;20111;-75
2021/08/12 08:02:53;;;;;;;8.07;4.55;;;19.40;89.80;;;;;;5074386;28;20028;-74
2021/08/12 08:05:21;;;;;;;6.40;4.00;;;19.50;89.40;;;;;;5073903;28;20032;-75
2021/08/12 08:07:49;;;;;;;7.47;4.05;;;19.60;89.10;;;;;;5074491;28;20025;-75
2021/08/12 08:10:16;;;;;;;8.13;3.88;;;19.70;88.70;;;;;;5073716;28;20078;-75
2021/08/12 08:12:42;;;;;;;8.75;3.97;;;19.80;88.40;;;;;;5074293;28;20444;-75
2021/08/12 08:15:12;;;;;;;7.47;3.80;;;19.80;88.20;;;;;;5074547;28;20084;-75
2021/08/12 08:17:38;;;;;;;7.18;3.72;;;19.90;88.00;;;;;;5076967;28;20103;-75
2021/08/12 08:20:06;;;;;;;8.60;4.53;;;19.90;87.80;;;;;;5074340;28;20104;-76
2021/08/12 08:22:32;;;;;;;9.52;4.65;;;20.00;87.50;;;;;;5073864;28;20388;-75
2021/08/12 08:24:58;;;;;;;8.80;3.90;;;20.00;87.20;;;;;;5074071;28;20040;-75
2021/08/12 08:27:24;;;;;;;8.45;4.50;;;20.10;87.00;;;;;;5073330;28;20028;-75
2021/08/12 08:29:51;;;;;;;5.75;2.80;;;20.10;86.70;;;;;;5072807;28;20021;-75
2021/08/12 08:32:18;;;;;;;8.02;5.00;;;20.20;86.70;;;;;;5072078;28;20051;-75
2021/08/12 08:34:44;;;;;;;8.40;4.50;;;20.20;86.80;;;;;;5074058;28;20067;-75
2021/08/12 08:37:10;;;;;;;7.57;4.30;;;20.30;86.00;;;;;;5073317;28;20108;-75
2021/08/12 08:39:36;;;;;;;8.82;5.00;;;20.30;85.90;;;;;;5073580;28;20384;-75
2021/08/12 08:42:02;;;;;;;7.57;3.78;;;20.30;85.50;;;;;;5073820;28;20029;-75
2021/08/12 08:44:29;;;;;;;7.00;3.80;;;20.40;85.50;;;;;;5073521;28;20085;-76
2021/08/12 08:46:58;;;;;;;6.00;3.05;;;20.40;85.30;;;;;;5073567;28;20024;-76
2021/08/12 08:49:24;;;;;;;4.97;2.72;;;20.40;84.80;;;;;;5073414;28;20025;-75
2021/08/12 08:51:51;;;;;;;5.90;3.55;;;20.50;84.80;;;;;;5072357;28;20032;-75
2021/08/12 08:54:17;;;;;;;6.60;3.53;;;20.50;84.60;;;;;;5072838;28;20025;-75
2021/08/12 08:56:45;;;;;;;10.73;5.22;;;20.50;84.30;;;;;;5073708;28;20098;-75
2021/08/12 08:59:11;;;;;;;10.15;4.70;;;20.60;84.10;;;;;;5071120;28;20021;-75
2021/08/12 09:01:37;;;;;;;7.32;3.38;;;20.60;83.80;;;;;;5071977;28;20325;-75
2021/08/12 09:04:03;;;;;;;5.50;2.90;;;20.70;83.70;;;;;;5072204;28;20230;-75
2021/08/12 09:06:29;;;;;;;6.32;3.60;;;20.70;83.50;;;;;;5073102;28;20150;-75
2021/08/12 09:08:55;;;;;;;6.20;3.83;;;20.80;83.00;;;;;;5073236;28;20017;-74
2021/08/12 09:11:22;;;;;;;4.22;2.30;;;20.80;82.70;;;;;;5072399;28;20464;-74
2021/08/12 09:13:47;;;;;;;6.75;3.58;;;20.90;82.60;;;;;;5073126;28;20107;-74
2021/08/12 09:16:34;;;;;;;6.35;3.75;;;20.90;82.40;;;;;;5072289;28;20417;-74
2021/08/12 09:19:26;;;;;;;6.60;3.25;;;21.00;82.00;;;;;;5073081;28;20111;-74
2021/08/12 09:21:58;;;;;;;6.03;3.15;;;21.00;81.50;;;;;;5070902;28;20047;-74
2021/08/12 09:24:24;;;;;;;5.47;3.10;;;21.10;81.30;;;;;;5072515;28;20060;-74
2021/08/12 09:26:50;;;;;;;9.10;3.20;;;21.10;80.70;;;;;;5073000;28;20209;-74
2021/08/12 09:29:31;;;;;;;6.35;3.70;;;21.20;80.70;;;;;;5072503;28;20020;-76
2021/08/12 09:32:01;;;;;;;;;;;21.30;80.60;;;;;;5072958;28;20365;-75
2021/08/12 09:35:05;;;;;;;9.35;3.00;;;21.30;80.60;;;;;;5070867;28;19908;-75
2021/08/12 09:37:33;;;;;;;5.22;2.92;;;21.40;80.00;;;;;;5050606;28;20396;-75
2021/08/12 09:40:03;;;;;;;4.60;2.30;;;21.40;79.70;;;;;;5071403;28;20377;-74
2021/08/12 09:42:29;;;;;;;7.55;3.42;;;21.50;79.60;;;;;;5072292;28;20116;-75
2021/08/12 09:44:54;;;;;;;5.70;2.53;;;21.50;80.10;;;;;;5071023;28;20230;-75
2021/08/12 09:47:29;;;;;;;4.05;2.53;;;21.50;79.30;;;;;;5071672;28;20027;-75
2021/08/12 09:49:57;;;;;;;5.70;2.90;;;21.60;79.00;;;;;;5072575;28;20028;-75
2021/08/12 09:52:33;;;;;;;4.88;2.67;;;21.70;78.80;;;;;;5072135;28;20027;-75
2021/08/12 09:54:59;;;;;;;6.93;3.03;;;21.70;78.40;;;;;;5072360;28;20101;-75
2021/08/12 09:57:25;;;;;;;5.82;2.78;;;21.70;78.00;;;;;;5071715;28;20059;-75
2021/08/12 09:59:53;;;;;;;4.47;2.55;;;21.80;77.70;;;;;;5071975;28;20033;-75
2021/08/12 10:02:19;;;;;;;6.05;2.47;;;21.80;77.60;;;;;;5070345;28;20126;-75
2021/08/12 10:04:45;;;;;;;6.88;3.13;;;21.90;77.60;;;;;;5072027;28;20024;-75
2021/08/12 10:07:37;;;;;;;3.35;2.00;;;21.90;77.00;;;;;;5071707;28;20031;-75
2021/08/12 10:10:09;;;;;;;7.00;2.88;;;22.00;77.10;;;;;;5071548;28;20086;-75
2021/08/12 10:12:35;;;;;;;5.07;2.67;;;22.00;76.30;;;;;;5072156;28;20054;-74
2021/08/12 10:15:01;;;;;;;6.55;2.70;;;22.00;76.50;;;;;;5072352;28;20021;-77
2021/08/12 10:17:28;;;;;;;6.47;3.00;;;22.10;76.30;;;;;;5071723;28;20032;-74
2021/08/12 10:19:53;;;;;;;5.18;2.50;;;22.10;75.60;;;;;;5072065;28;20056;-74
2021/08/12 10:22:19;;;;;;;4.72;2.67;;;22.20;75.60;;;;;;5071122;28;20059;-74
2021/08/12 10:24:47;;;;;;;5.43;2.90;;;22.30;75.30;;;;;;5072175;28;20376;-74
2021/08/12 10:27:14;;;;;;;6.90;2.92;;;22.30;74.90;;;;;;5071431;28;20017;-74
2021/08/12 10:29:43;;;;;;;5.07;2.72;;;22.40;74.60;;;;;;5071829;28;20448;-75
2021/08/12 10:32:14;;;;;;;3.10;1.75;;;22.40;74.30;;;;;;5071726;28;20020;-74
2021/08/12 10:34:40;;;;;;;5.07;2.55;;;22.50;74.50;;;;;;5071734;28;20426;-74
2021/08/12 10:37:05;;;;;;;5.25;2.80;;;22.50;74.50;;;;;;5072136;28;20025;-74
2021/08/12 10:39:31;;;;;;;4.88;2.47;;;22.50;74.30;;;;;;5071030;28;20063;-74
2021/08/12 10:41:57;;;;;;;3.78;2.10;;;22.50;74.40;;;;;;5070812;28;20453;-74
2021/08/12 10:44:24;;;;;;;6.50;2.95;;;22.60;74.40;;;;;;5072630;28;20095;-74
2021/08/12 10:46:50;;;;;;;3.85;2.10;;;22.60;74.10;;;;;;5071903;28;20202;-74
2021/08/12 10:49:25;;;;;;;6.57;3.40;;;22.70;74.30;;;;;;5071949;28;20060;-75
2021/08/12 10:52:00;;;;;;;6.18;3.20;;;22.70;74.10;;;;;;5072202;28;20033;-75
2021/08/12 10:54:26;;;;;;;5.65;2.58;;;22.70;73.90;;;;;;5071799;28;20364;-75
2021/08/12 10:57:12;;;;;;;4.88;2.80;;;22.80;73.80;;;;;;5071428;28;20028;-74
2021/08/12 10:59:39;;;;;;;4.30;2.58;;;22.80;73.60;;;;;;5070332;28;20400;-76
2021/08/12 11:02:27;;;;;;;5.10;2.60;;;22.80;73.70;;;;;;5071466;28;20505;-75
2021/08/12 11:04:58;;;;;;;6.75;3.08;;;22.80;73.80;;;;;;5061281;28;20170;-75
2021/08/12 11:07:36;;;;;;;;;;;22.90;73.80;;;;;;5071883;28;20413;-75
2021/08/12 11:10:04;;;;;;;4.93;2.53;;;23.00;73.60;;;;;;5071594;28;19904;-75
2021/08/12 11:12:57;;;;;;;3.63;2.38;;;23.20;73.50;;;;;;5071204;28;20392;-75
2021/08/12 11:15:38;;;;;;;5.38;2.67;;;23.30;73.10;;;;;;5070597;28;20372;-75
2021/08/12 11:18:06;;;;;;;;;;;23.50;72.30;;;;;;5071659;28;20073;-76
2021/08/12 11:20:52;;;;;;;4.47;2.38;;;23.50;72.10;;;;;;5071601;28;20348;-75
2021/08/12 11:23:17;;;;;;;4.47;2.70;;;23.60;71.60;;;;;;5074945;28;20043;-75
2021/08/12 11:26:03;;;;;;;5.38;2.80;;;23.60;71.40;;;;;;5074749;28;20048;-75
2021/08/12 11:28:41;;;;;;;4.22;2.40;;;23.70;71.50;;;;;;5073423;28;20027;-75
2021/08/12 11:31:29;;;;;;;6.10;3.33;;;23.70;71.30;;;;;;5073899;28;20115;-75
2021/08/12 11:34:00;;;;;;;4.38;2.60;;;23.70;70.40;;;;;;5074887;28;20027;-75
2021/08/12 11:36:31;;;;;;;;;;;23.70;70.50;;;;;;5074715;28;20060;-75
2021/08/12 11:39:08;;;;;;;5.53;3.28;;;23.80;70.60;;;;;;5075058;28;19947;-75
2021/08/12 11:41:42;;;;;;;4.25;2.33;;;23.90;69.90;;;;;;5072777;28;20035;-75
2021/08/12 11:44:16;;;;;;;5.03;2.80;;;23.90;69.90;;;;;;5074945;28;20036;-75
2021/08/12 11:46:42;;;;;;;5.15;2.72;;;23.90;69.60;;;;;;5074574;28;20052;-75
2021/08/12 11:49:13;;;;;;;3.95;2.63;;;24.00;69.90;;;;;;5074899;28;20033;-75
2021/08/12 11:51:38;;;;;;;;;;;24.10;69.70;;;;;;5074587;28;20421;-75
2021/08/12 11:54:04;;;;;;;5.45;2.80;;;24.30;69.40;;;;;;5074816;28;19954;-75
2021/08/12 11:56:32;;;;;;;5.15;2.70;;;24.40;69.00;;;;;;5074036;28;20108;-75
2021/08/12 11:59:00;;;;;;;5.47;2.80;;;24.50;68.80;;;;;;5074568;28;20025;-75
2021/08/12 12:01:32;;;;;;;3.92;2.30;;;24.70;68.20;;;;;;5072659;28;20108;-75
2021/08/12 12:04:07;;;;;;;3.88;2.38;;;24.80;68.40;;;;;;5074551;28;20039;-75
2021/08/12 12:06:38;;;;;;;5.03;2.55;;;24.90;68.20;;;;;;5073909;28;20024;-75
2021/08/12 12:09:39;;;;;;;3.92;2.60;;;25.00;67.70;;;;;;5074460;28;20024;-75
2021/08/12 12:12:08;;;;;;;;;;;25.00;67.40;;;;;;5032398;28;20053;-75
2021/08/12 12:14:36;;;;;;;4.82;2.70;;;25.00;67.20;;;;;;5065944;28;19980;-75
2021/08/12 12:17:09;;;;;;;4.10;2.40;;;24.90;67.10;;;;;;5056330;28;20120;-75
2021/08/12 12:19:35;;;;;;;8.02;2.65;;;25.00;67.20;;;;;;5072260;28;20027;-75
2021/08/12 12:22:01;;;;;;;4.53;2.25;;;25.00;67.10;;;;;;5074067;28;20028;-74
2021/08/12 12:24:27;;;;;;;5.00;3.15;;;25.10;66.90;;;;;;5073289;28;20016;-75
2021/08/12 12:26:59;;;;;;;4.88;2.25;;;25.10;66.40;;;;;;5073726;28;20134;-75
2021/08/12 12:29:24;;;;;;;6.40;3.08;;;25.20;66.50;;;;;;5073559;28;20035;-75
2021/08/12 12:31:58;;;;;;;4.22;2.50;;;25.20;66.30;;;;;;5074037;28;20024;-75
2021/08/12 12:34:23;;;;;;;4.10;2.60;;;25.10;66.40;;;;;;5072708;28;20024;-74
2021/08/12 12:36:49;;;;;;;3.47;1.90;;;25.10;66.50;;;;;;5073702;28;20023;-74
2021/08/12 12:39:19;;;;;;;5.03;2.58;;;25.20;67.20;;;;;;5073021;28;20376;-74
2021/08/12 12:41:45;;;;;;;5.10;2.38;;;25.20;66.30;;;;;;5073677;28;20461;-74
2021/08/12 12:44:12;;;;;;;5.75;2.88;;;25.20;66.30;;;;;;5073748;28;20024;-74
2021/08/12 12:46:39;;;;;;;3.70;2.40;;;25.30;66.10;;;;;;5073138;28;20034;-74
2021/08/12 12:49:25;;;;;;;6.28;3.35;;;25.30;66.10;;;;;;5072629;28;20437;-74
2021/08/12 12:51:51;;;;;;;5.53;3.10;;;25.40;65.60;;;;;;5073618;28;20068;-74
2021/08/12 12:54:44;;;;;;;5.13;2.40;;;25.40;65.30;;;;;;5073614;28;20043;-75